createdAt,value
2018-08-17T00:01:39.215Z,99.90
2018-08-17T00:04:07.382Z,99.90
2018-08-17T00:06:35.634Z,99.90
2018-08-17T00:09:04.908Z,99.90
2018-08-17T00:11:32.687Z,99.90
2018-08-17T00:14:02.061Z,99.90
2018-08-17T00:16:30.947Z,99.90
2018-08-17T00:18:58.659Z,99.90
2018-08-17T00:21:26.525Z,99.90
2018-08-17T00:23:54.467Z,99.90
2018-08-17T00:26:22.206Z,99.90
2018-08-17T00:28:50.325Z,99.90
2018-08-17T00:31:18.439Z,99.90
2018-08-17T00:33:45.884Z,99.90
2018-08-17T00:36:13.465Z,99.90
2018-08-17T00:38:41.041Z,99.90
2018-08-17T00:41:08.466Z,99.90
2018-08-17T00:43:35.900Z,99.90
2018-08-17T00:46:03.428Z,99.90
2018-08-17T00:48:30.940Z,99.90
2018-08-17T00:50:59.463Z,99.90
2018-08-17T00:53:26.912Z,99.90
2018-08-17T00:55:54.411Z,99.90
2018-08-17T00:58:21.955Z,99.90
2018-08-17T01:00:49.444Z,99.90
2018-08-17T01:03:16.885Z,99.90
2018-08-17T01:05:44.460Z,99.90
2018-08-17T01:08:11.939Z,99.90
2018-08-17T01:10:39.371Z,99.90
2018-08-17T01:13:11.424Z,99.90
2018-08-17T01:15:38.887Z,99.90
2018-08-17T01:18:06.383Z,99.90
2018-08-17T01:20:33.876Z,99.90
2018-08-17T01:23:01.336Z,99.90
2018-08-17T01:25:28.803Z,99.90
2018-08-17T01:27:56.255Z,99.90
2018-08-17T01:30:23.897Z,99.90
2018-08-17T01:32:51.450Z,99.90
2018-08-17T01:35:19.024Z,99.90
2018-08-17T01:37:46.510Z,99.90
2018-08-17T01:40:13.934Z,99.90
2018-08-17T01:42:41.384Z,99.90
2018-08-17T01:45:08.864Z,99.90
2018-08-17T01:47:36.331Z,99.90
2018-08-17T01:50:04.793Z,99.90
2018-08-17T01:52:32.377Z,99.90
2018-08-17T01:54:59.803Z,99.90
2018-08-17T01:57:27.257Z,99.90
2018-08-17T01:59:54.743Z,99.90
2018-08-17T02:02:22.209Z,99.90
2018-08-17T02:04:49.639Z,99.90
2018-08-17T02:07:17.703Z,99.90
2018-08-17T02:09:45.621Z,99.90
2018-08-17T02:12:13.613Z,99.90
2018-08-17T02:14:41.644Z,99.90
2018-08-17T02:17:09.633Z,99.90
2018-08-17T02:19:37.611Z,99.90
2018-08-17T02:22:05.079Z,99.90
2018-08-17T02:24:32.661Z,99.90
2018-08-17T02:27:00.031Z,99.90
2018-08-17T02:29:27.456Z,99.90
2018-08-17T02:31:54.880Z,99.90
2018-08-17T02:34:22.315Z,99.90
2018-08-17T02:36:49.759Z,99.90
2018-08-17T02:39:17.228Z,99.90
2018-08-17T02:41:44.683Z,99.90
2018-08-17T02:44:12.160Z,99.90
2018-08-17T02:46:39.610Z,99.90
2018-08-17T02:49:07.055Z,99.90
2018-08-17T02:51:34.534Z,99.90
2018-08-17T02:54:01.967Z,99.90
2018-08-17T02:56:29.559Z,99.90
2018-08-17T02:58:57.024Z,99.90
2018-08-17T03:01:24.463Z,99.90
2018-08-17T03:03:51.890Z,99.90
2018-08-17T03:06:19.395Z,99.90
2018-08-17T03:08:46.836Z,99.90
2018-08-17T03:11:14.344Z,99.90
2018-08-17T03:13:41.775Z,99.90
2018-08-17T03:16:09.428Z,99.90
2018-08-17T03:18:36.892Z,99.90
2018-08-17T03:21:04.429Z,99.90
2018-08-17T03:23:31.987Z,99.90
2018-08-17T03:25:59.498Z,99.90
2018-08-17T03:28:27.568Z,99.90
2018-08-17T03:30:55.016Z,99.90
2018-08-17T03:33:22.482Z,99.90
2018-08-17T03:35:49.956Z,99.90
2018-08-17T03:38:17.428Z,99.90
2018-08-17T03:40:45.003Z,99.90
2018-08-17T03:43:12.471Z,99.90
2018-08-17T03:45:39.943Z,99.90
2018-08-17T03:48:07.793Z,99.90
2018-08-17T03:50:35.250Z,99.90
2018-08-17T03:53:02.723Z,99.90
2018-08-17T03:55:30.442Z,99.90
2018-08-17T03:57:57.883Z,99.90
2018-08-17T04:00:25.343Z,99.90
2018-08-17T04:02:52.798Z,99.90
2018-08-17T04:05:20.293Z,99.90
2018-08-17T04:07:48.907Z,99.90
2018-08-17T04:10:16.391Z,99.90
2018-08-17T04:12:43.839Z,99.90
2018-08-17T04:15:11.324Z,99.90
2018-08-17T04:17:39.156Z,99.90
2018-08-17T04:20:06.872Z,99.90
2018-08-17T04:22:34.316Z,99.90
2018-08-17T04:25:01.904Z,99.90
2018-08-17T04:27:29.441Z,99.90
2018-08-17T04:29:57.504Z,99.90
2018-08-17T04:32:25.074Z,99.90
2018-08-17T04:34:52.577Z,99.90
2018-08-17T04:37:20.007Z,99.90
2018-08-17T04:39:47.546Z,99.90
2018-08-17T04:42:23.811Z,99.90
2018-08-17T04:44:51.391Z,99.90
2018-08-17T04:47:26.134Z,99.90
2018-08-17T04:49:55.151Z,99.90
2018-08-17T04:52:22.595Z,99.90
2018-08-17T04:54:50.063Z,99.90
2018-08-17T04:57:17.566Z,99.90
2018-08-17T04:59:45.030Z,99.90
2018-08-17T05:02:12.609Z,99.90
2018-08-17T05:04:40.172Z,99.90
2018-08-17T05:07:08.652Z,99.90
2018-08-17T05:09:36.084Z,99.90
2018-08-17T05:12:03.556Z,99.90
2018-08-17T05:14:31.156Z,99.90
2018-08-17T05:16:58.618Z,99.90
2018-08-17T05:19:26.180Z,99.90
2018-08-17T05:21:53.649Z,99.90
2018-08-17T05:24:21.230Z,99.90
2018-08-17T05:26:48.663Z,99.90
2018-08-17T05:29:16.111Z,99.90
2018-08-17T05:31:43.693Z,99.90
2018-08-17T05:34:11.351Z,99.90
2018-08-17T05:36:39.868Z,99.90
2018-08-17T05:39:08.131Z,99.90
2018-08-17T05:41:35.611Z,99.90
2018-08-17T05:44:03.135Z,99.90
2018-08-17T05:46:30.557Z,99.90
2018-08-17T05:48:58.034Z,99.90
2018-08-17T05:51:25.452Z,99.90
2018-08-17T05:53:52.895Z,99.90
2018-08-17T05:56:20.709Z,99.90
2018-08-17T05:58:48.780Z,99.90
2018-08-17T06:01:17.113Z,99.90
2018-08-17T06:03:45.986Z,99.90
2018-08-17T06:06:16.790Z,99.90
2018-08-17T06:08:44.244Z,99.90
2018-08-17T06:11:11.865Z,99.90
2018-08-17T06:13:39.258Z,99.90
2018-08-17T06:16:07.153Z,99.90
2018-08-17T06:18:37.015Z,99.90
2018-08-17T06:21:04.525Z,99.90
2018-08-17T06:23:32.016Z,99.90
2018-08-17T06:25:59.525Z,99.90
2018-08-17T06:28:27.703Z,99.90
2018-08-17T06:30:55.210Z,99.90
2018-08-17T06:33:22.668Z,99.90
2018-08-17T06:35:50.289Z,99.90
2018-08-17T06:38:17.795Z,99.90
2018-08-17T06:40:45.412Z,99.90
2018-08-17T06:43:14.433Z,99.90
2018-08-17T06:45:43.667Z,99.90
2018-08-17T06:48:11.370Z,99.90
2018-08-17T06:50:39.082Z,99.90
2018-08-17T06:53:07.356Z,99.90
2018-08-17T06:55:36.079Z,99.90
2018-08-17T06:58:03.636Z,99.90
2018-08-17T07:00:31.160Z,99.90
2018-08-17T07:02:58.881Z,99.90
2018-08-17T07:05:26.343Z,99.90
2018-08-17T07:07:53.809Z,99.90
2018-08-17T07:10:21.348Z,99.90
2018-08-17T07:15:16.793Z,99.90
2018-08-17T07:17:45.501Z,99.90
2018-08-17T07:20:13.761Z,99.90
2018-08-17T07:22:42.116Z,99.90
2018-08-17T07:25:10.169Z,99.90
2018-08-17T07:27:38.733Z,99.90
2018-08-17T07:30:08.157Z,99.90
2018-08-17T07:32:36.204Z,99.90
2018-08-17T07:35:05.033Z,99.90
2018-08-17T07:37:32.888Z,99.90
2018-08-17T07:40:00.488Z,99.90
2018-08-17T07:42:27.979Z,99.60
2018-08-17T07:44:55.380Z,99.80
2018-08-17T07:47:22.896Z,99.50
2018-08-17T07:49:50.379Z,99.50
2018-08-17T07:52:18.078Z,99.50
2018-08-17T07:54:45.590Z,99.30
2018-08-17T07:57:13.075Z,99.30
2018-08-17T07:59:40.712Z,99.30
2018-08-17T08:02:08.215Z,99.40
2018-08-17T08:04:35.831Z,98.90
2018-08-17T08:07:03.347Z,99.00
2018-08-17T08:09:30.840Z,99.00
2018-08-17T08:11:58.441Z,98.90
2018-08-17T08:14:25.862Z,98.70
2018-08-17T08:16:53.303Z,98.70
2018-08-17T08:19:20.832Z,98.60
2018-08-17T08:21:49.388Z,98.40
2018-08-17T08:24:17.515Z,98.40
2018-08-17T08:26:45.356Z,98.30
2018-08-17T08:29:12.839Z,98.40
2018-08-17T08:31:40.346Z,98.00
2018-08-17T08:34:08.290Z,97.60
2018-08-17T08:36:35.906Z,97.60
2018-08-17T08:39:05.605Z,97.70
2018-08-17T08:41:33.125Z,97.40
2018-08-17T08:44:00.695Z,97.20
2018-08-17T08:46:28.123Z,97.20
2018-08-17T08:48:55.748Z,97.20
2018-08-17T08:51:23.743Z,97.00
2018-08-17T08:53:52.656Z,96.60
2018-08-17T08:56:20.071Z,96.50
2018-08-17T08:58:47.637Z,96.50
2018-08-17T09:01:15.215Z,96.50
2018-08-17T09:03:43.175Z,96.40
2018-08-17T09:06:10.927Z,96.00
2018-08-17T09:08:38.552Z,95.60
2018-08-17T09:11:06.260Z,95.90
2018-08-17T09:13:33.988Z,95.70
2018-08-17T09:16:01.538Z,95.20
2018-08-17T09:18:29.512Z,95.10
2018-08-17T09:20:57.199Z,95.10
2018-08-17T09:23:25.245Z,95.00
2018-08-17T09:25:53.010Z,95.20
2018-08-17T09:28:20.620Z,95.10
2018-08-17T09:30:48.083Z,95.00
2018-08-17T09:33:15.715Z,94.70
2018-08-17T09:35:43.483Z,94.70
2018-08-17T09:38:10.915Z,94.40
2018-08-17T09:40:38.491Z,94.20
2018-08-17T09:43:06.010Z,94.20
2018-08-17T09:45:34.056Z,94.10
2018-08-17T09:48:01.559Z,93.70
2018-08-17T09:50:29.073Z,93.40
2018-08-17T09:52:56.544Z,93.10
2018-08-17T09:55:24.009Z,93.10
2018-08-17T09:57:51.455Z,93.20
2018-08-17T10:00:18.997Z,93.20
2018-08-17T10:02:52.758Z,93.20
2018-08-17T10:05:26.287Z,92.70
2018-08-17T10:07:59.462Z,92.20
2018-08-17T10:10:27.320Z,92.20
2018-08-17T10:12:55.051Z,92.40
2018-08-17T10:15:23.646Z,92.50
2018-08-17T10:17:51.539Z,92.50
2018-08-17T10:20:23.189Z,92.30
2018-08-17T10:22:50.952Z,92.00
2018-08-17T10:25:20.036Z,92.00
2018-08-17T10:27:49.943Z,91.60
2018-08-17T10:30:18.720Z,91.00
2018-08-17T10:32:51.271Z,91.20
2018-08-17T10:35:22.725Z,91.10
2018-08-17T10:37:57.080Z,91.20
2018-08-17T10:40:24.950Z,90.90
2018-08-17T10:42:53.411Z,90.80
2018-08-17T10:45:22.483Z,90.40
2018-08-17T10:47:50.708Z,90.40
2018-08-17T10:50:19.611Z,90.70
2018-08-17T10:52:49.426Z,90.60
2018-08-17T10:55:17.046Z,90.00
2018-08-17T10:57:45.003Z,90.00
2018-08-17T11:00:15.765Z,90.00
2018-08-17T11:02:43.878Z,89.40
2018-08-17T11:05:12.387Z,88.60
2018-08-17T11:07:41.444Z,88.10
2018-08-17T11:10:10.183Z,88.10
2018-08-17T11:12:38.844Z,88.60
2018-08-17T11:15:06.515Z,89.40
2018-08-17T11:17:35.017Z,87.10
2018-08-17T11:20:02.623Z,88.00
2018-08-17T11:22:30.530Z,87.60
2018-08-17T11:24:59.643Z,88.40
2018-08-17T11:27:27.243Z,87.60
2018-08-17T11:29:54.922Z,87.60
2018-08-17T11:32:22.492Z,87.70
2018-08-17T11:34:52.612Z,86.00
2018-08-17T11:37:21.441Z,86.90
2018-08-17T11:39:54.662Z,85.20
2018-08-17T11:42:24.775Z,83.60
2018-08-17T11:44:52.218Z,82.80
2018-08-17T11:47:20.068Z,81.10
2018-08-17T11:49:47.536Z,78.70
2018-08-17T11:52:15.007Z,78.00
2018-08-17T11:54:44.364Z,75.30
2018-08-17T11:57:11.874Z,74.80
2018-08-17T11:59:44.215Z,70.80
2018-08-17T12:02:12.429Z,69.90
2018-08-17T12:04:41.338Z,70.00
2018-08-17T12:07:08.957Z,70.00
2018-08-17T12:09:36.530Z,69.00
2018-08-17T12:12:04.010Z,67.30
2018-08-17T12:14:31.611Z,67.70
2018-08-17T12:16:59.115Z,68.00
2018-08-17T12:19:26.555Z,68.40
2018-08-17T12:21:54.103Z,69.30
2018-08-17T12:24:21.728Z,70.10
2018-08-17T12:26:53.153Z,70.40
2018-08-17T12:29:21.064Z,71.50
2018-08-17T12:31:48.930Z,71.90
2018-08-17T12:34:16.819Z,73.20
2018-08-17T12:36:44.480Z,73.40
2018-08-17T12:39:12.010Z,73.60
2018-08-17T12:41:39.820Z,73.80
2018-08-17T12:44:07.384Z,74.00
2018-08-17T12:46:34.978Z,74.30
2018-08-17T12:49:02.504Z,74.70
2018-08-17T12:51:29.984Z,74.50
2018-08-17T12:53:57.554Z,74.40
2018-08-17T12:56:25.179Z,74.40
2018-08-17T12:58:52.712Z,74.10
2018-08-17T13:01:20.378Z,73.20
2018-08-17T13:03:47.832Z,72.90
2018-08-17T13:06:15.487Z,71.90
2018-08-17T13:08:42.953Z,69.20
2018-08-17T13:11:10.507Z,69.50
2018-08-17T13:13:38.108Z,69.70
2018-08-17T13:16:07.085Z,70.20
2018-08-17T13:18:36.302Z,70.40
2018-08-17T13:21:03.868Z,71.70
2018-08-17T13:23:31.722Z,71.70
2018-08-17T13:25:59.275Z,72.00
2018-08-17T13:28:27.194Z,70.60
2018-08-17T13:30:55.058Z,71.70
2018-08-17T13:33:22.830Z,73.60
2018-08-17T13:35:51.300Z,74.00
2018-08-17T13:38:19.110Z,76.70
2018-08-17T13:40:46.655Z,77.40
2018-08-17T13:43:14.422Z,77.30
2018-08-17T13:45:42.701Z,78.10
2018-08-17T13:48:11.382Z,76.90
2018-08-17T13:50:40.871Z,76.40
2018-08-17T13:53:08.837Z,76.70
2018-08-17T13:55:37.008Z,75.00
2018-08-17T13:58:06.125Z,75.60
2018-08-17T14:00:34.916Z,75.80
2018-08-17T14:03:04.450Z,76.30
2018-08-17T14:05:33.205Z,77.70
2018-08-17T14:08:00.928Z,78.30
2018-08-17T14:10:29.562Z,78.70
2018-08-17T14:12:58.239Z,79.90
2018-08-17T14:15:26.252Z,79.90
2018-08-17T14:17:57.042Z,81.00
2018-08-17T14:20:25.398Z,81.80
2018-08-17T14:22:55.779Z,80.80
2018-08-17T14:25:24.367Z,78.10
2018-08-17T14:27:53.651Z,75.60
2018-08-17T14:30:21.766Z,75.20
2018-08-17T14:32:49.955Z,75.90
2018-08-17T14:35:18.189Z,76.80
2018-08-17T14:37:46.232Z,77.40
2018-08-17T14:40:16.554Z,78.60
2018-08-17T14:42:44.696Z,78.60
2018-08-17T14:45:13.989Z,78.50
2018-08-17T14:47:42.147Z,78.60
2018-08-17T14:50:12.006Z,81.90
2018-08-17T14:52:46.069Z,84.00
2018-08-17T14:55:13.780Z,84.70
2018-08-17T14:57:57.631Z,87.50
2018-08-17T15:09:00.801Z,89.10
2018-08-17T15:11:29.731Z,89.30
2018-08-17T15:14:01.692Z,90.00
2018-08-17T15:16:29.887Z,90.00
2018-08-17T15:18:57.385Z,90.10
2018-08-17T15:21:27.040Z,90.20
2018-08-17T15:23:54.676Z,90.30
2018-08-17T15:26:22.269Z,90.40
2018-08-17T15:28:49.799Z,90.60
2018-08-17T15:31:19.234Z,90.60
2018-08-17T15:33:47.276Z,90.50
2018-08-17T15:36:14.755Z,90.60
2018-08-17T15:38:42.251Z,90.80
2018-08-17T15:41:09.923Z,91.40
2018-08-17T15:43:37.394Z,91.70
2018-08-17T15:46:05.006Z,91.70
2018-08-17T15:48:38.952Z,91.90
2018-08-17T15:51:09.527Z,92.00
2018-08-17T15:53:37.003Z,92.00
2018-08-17T15:56:04.449Z,92.20
2018-08-17T15:58:31.918Z,92.30
2018-08-17T16:00:59.722Z,92.70
2018-08-17T16:03:27.172Z,92.80
2018-08-17T16:05:54.707Z,93.00
2018-08-17T16:08:22.249Z,93.00
2018-08-17T16:10:49.780Z,93.10
2018-08-17T16:13:17.286Z,93.50
2018-08-17T16:15:44.712Z,93.60
2018-08-17T16:18:12.203Z,93.70
2018-08-17T16:20:39.737Z,93.80
2018-08-17T16:23:07.232Z,93.90
2018-08-17T16:25:34.724Z,94.20
2018-08-17T16:28:02.255Z,94.30
2018-08-17T16:30:29.714Z,94.30
2018-08-17T16:32:57.196Z,94.60
2018-08-17T16:35:24.723Z,94.40
2018-08-17T16:37:52.234Z,94.50
2018-08-17T16:40:20.782Z,94.60
2018-08-17T16:42:49.754Z,94.60
2018-08-17T16:45:17.371Z,94.40
2018-08-17T16:47:44.894Z,94.60
2018-08-17T16:50:13.490Z,94.70
2018-08-17T16:52:40.987Z,94.70
2018-08-17T16:55:08.469Z,94.80
2018-08-17T16:57:36.498Z,94.90
2018-08-17T17:00:05.519Z,94.90
2018-08-17T17:02:33.132Z,94.90
2018-08-17T17:05:00.735Z,95.10
2018-08-17T17:07:30.313Z,95.20
2018-08-17T17:09:58.449Z,95.20
2018-08-17T17:12:26.127Z,95.30
2018-08-17T17:14:58.347Z,95.40
2018-08-17T17:17:26.032Z,95.40
2018-08-17T17:19:53.699Z,95.50
2018-08-17T17:22:23.108Z,95.60
2018-08-17T17:24:50.684Z,95.70
2018-08-17T17:27:18.930Z,95.80
2018-08-17T17:29:46.576Z,95.80
2018-08-17T17:32:14.111Z,95.80
2018-08-17T17:34:41.819Z,95.90
2018-08-17T17:37:09.504Z,96.10
2018-08-17T17:39:37.062Z,96.10
2018-08-17T17:42:04.728Z,96.10
2018-08-17T17:44:32.417Z,96.10
2018-08-17T17:47:01.107Z,96.50
2018-08-17T17:49:28.668Z,96.50
2018-08-17T17:51:56.236Z,96.50
2018-08-17T17:54:25.017Z,96.30
2018-08-17T17:56:58.331Z,96.40
2018-08-17T17:59:25.899Z,96.50
2018-08-17T18:01:53.596Z,96.90
2018-08-17T18:04:21.144Z,96.90
2018-08-17T18:06:48.724Z,97.00
2018-08-17T18:09:16.305Z,97.00
2018-08-17T18:11:43.767Z,97.10
2018-08-17T18:14:11.378Z,97.10
2018-08-17T18:16:38.887Z,97.00
2018-08-17T18:19:07.555Z,97.00
2018-08-17T18:21:35.898Z,97.00
2018-08-17T18:24:09.536Z,96.80
2018-08-17T18:26:37.101Z,97.00
2018-08-17T18:29:04.907Z,97.00
2018-08-17T18:31:32.571Z,97.10
2018-08-17T18:34:00.043Z,97.20
2018-08-17T18:36:27.512Z,97.20
2018-08-17T18:38:55.029Z,97.30
2018-08-17T18:41:22.632Z,97.40
2018-08-17T18:43:50.151Z,97.60
2018-08-17T18:46:18.092Z,97.60
2018-08-17T18:48:45.836Z,97.70
2018-08-17T18:51:13.355Z,97.70
2018-08-17T18:53:41.091Z,97.80
2018-08-17T18:56:08.580Z,98.10
2018-08-17T18:58:36.123Z,98.20
2018-08-17T19:01:03.698Z,98.30
2018-08-17T19:03:31.485Z,98.40
2018-08-17T19:05:59.012Z,98.50
2018-08-17T19:08:26.543Z,98.50
2018-08-17T19:10:54.074Z,98.40
2018-08-17T19:13:21.581Z,98.50
2018-08-17T19:15:53.224Z,98.60
2018-08-17T19:18:21.127Z,98.60
2018-08-17T19:20:48.604Z,98.70
2018-08-17T19:23:16.083Z,98.70
2018-08-17T19:25:43.585Z,98.80
2018-08-17T19:28:11.157Z,98.80
2018-08-17T19:30:38.685Z,98.70
2018-08-17T19:33:07.808Z,98.90
2018-08-17T19:35:35.247Z,98.90
2018-08-17T19:38:02.843Z,99.10
2018-08-17T19:40:30.336Z,99.00
2018-08-17T19:42:57.991Z,99.00
2018-08-17T19:45:25.481Z,98.90
2018-08-17T19:47:52.947Z,99.10
2018-08-17T19:50:20.444Z,99.10
2018-08-17T19:52:48.034Z,99.10
2018-08-17T19:55:16.594Z,99.10
2018-08-17T19:57:46.140Z,99.20
2018-08-17T20:00:13.821Z,99.30
2018-08-17T20:02:41.708Z,99.30
2018-08-17T20:05:11.837Z,99.40
2018-08-17T20:07:39.629Z,99.40
2018-08-17T20:10:08.604Z,99.40
2018-08-17T20:12:36.060Z,99.40
2018-08-17T20:15:04.937Z,99.40
2018-08-17T20:17:32.405Z,99.60
2018-08-17T20:19:59.891Z,99.50
2018-08-17T20:22:27.451Z,99.50
2018-08-17T20:24:54.914Z,99.60
2018-08-17T20:27:22.433Z,99.60
2018-08-17T20:29:49.911Z,99.60
2018-08-17T20:32:18.480Z,99.70
2018-08-17T20:34:47.851Z,99.70
2018-08-17T20:37:16.148Z,99.70
2018-08-17T20:39:44.687Z,99.60
2018-08-17T20:42:13.348Z,99.60
2018-08-17T20:44:41.439Z,99.70
2018-08-17T20:47:09.952Z,99.70
2018-08-17T20:49:37.775Z,99.70
2018-08-17T20:52:05.396Z,99.90
2018-08-17T20:54:33.083Z,99.90
2018-08-17T20:57:01.451Z,99.70
2018-08-17T20:59:29.244Z,99.80
2018-08-17T21:01:57.236Z,99.80
2018-08-17T21:04:24.789Z,99.90
2018-08-17T21:06:52.303Z,99.80
2018-08-17T21:09:22.803Z,99.90
2018-08-17T21:11:50.557Z,99.90
2018-08-17T21:14:18.219Z,99.90
2018-08-17T21:16:45.751Z,99.90
2018-08-17T21:19:13.338Z,99.90
2018-08-17T21:21:41.014Z,99.90
2018-08-17T21:24:08.531Z,99.90
2018-08-17T21:26:35.997Z,99.90
2018-08-17T21:29:04.180Z,99.90
2018-08-17T21:31:31.788Z,99.90
2018-08-17T21:33:59.348Z,99.90
2018-08-17T21:36:26.969Z,99.90
2018-08-17T21:39:09.713Z,99.90
2018-08-17T21:41:38.493Z,99.90
2018-08-17T21:44:07.172Z,99.90
2018-08-17T21:46:35.808Z,99.90
2018-08-17T21:49:03.392Z,99.90
2018-08-17T21:51:33.032Z,99.80
2018-08-17T21:54:01.043Z,99.80
2018-08-17T21:56:28.567Z,99.90
2018-08-17T21:58:56.042Z,99.90
2018-08-17T22:01:23.563Z,99.80
2018-08-17T22:03:51.477Z,99.90
2018-08-17T22:06:19.036Z,99.90
2018-08-17T22:08:46.555Z,99.90
2018-08-17T22:11:23.515Z,99.90
2018-08-17T22:13:51.054Z,99.90
2018-08-17T22:16:18.623Z,99.90
2018-08-17T22:18:46.232Z,99.90
2018-08-17T22:21:13.706Z,99.90
2018-08-17T22:23:41.224Z,99.90
2018-08-17T22:26:08.779Z,99.90
2018-08-17T22:28:36.278Z,99.90
2018-08-17T22:31:04.431Z,99.90
2018-08-17T22:33:31.985Z,99.90
2018-08-17T22:36:00.138Z,99.90
2018-08-17T22:38:31.433Z,99.90
2018-08-17T22:40:58.990Z,99.90
2018-08-17T22:43:26.750Z,99.90
2018-08-17T22:45:54.372Z,99.90
2018-08-17T22:48:22.282Z,99.90
2018-08-17T22:50:49.670Z,99.90
2018-08-17T22:53:17.355Z,99.90
2018-08-17T22:55:45.123Z,99.90
2018-08-17T22:58:12.753Z,99.90
2018-08-17T23:00:40.596Z,99.90
2018-08-17T23:03:08.290Z,99.90
2018-08-17T23:05:36.100Z,99.90
2018-08-17T23:08:03.891Z,99.90
2018-08-17T23:10:31.626Z,99.90
2018-08-17T23:12:59.221Z,99.90
2018-08-17T23:15:26.879Z,99.90
2018-08-17T23:17:58.667Z,99.90
2018-08-17T23:20:31.917Z,99.90
2018-08-17T23:23:00.598Z,99.90
2018-08-17T23:25:28.410Z,99.90
2018-08-17T23:27:55.970Z,99.90
2018-08-17T23:30:25.190Z,99.90
2018-08-17T23:32:53.110Z,99.90
2018-08-17T23:35:20.905Z,99.90
2018-08-17T23:37:48.658Z,99.90
2018-08-17T23:40:16.288Z,99.90
2018-08-17T23:42:44.049Z,99.90
2018-08-17T23:45:13.739Z,99.90
2018-08-17T23:47:41.279Z,99.90
2018-08-17T23:50:10.286Z,99.90
2018-08-17T23:52:37.990Z,99.90
2018-08-17T23:55:06.246Z,99.90
2018-08-17T23:57:34.703Z,99.90
